sensor_id;sensor_type;location;lat;lon;timestamp;pressure;altitude;pressure_sealevel;temperature;humidity
61136;BME280;47021;51.340;12.432;2023-01-28T00:00:24;101099.97;;;4.40;72.96
61136;BME280;47021;51.340;12.432;2023-01-28T00:02:55;101099.53;;;4.51;72.82
61136;BME280;47021;51.340;12.432;2023-01-28T00:05:21;101107.88;;;4.37;73.40
61136;BME280;47021;51.340;12.432;2023-01-28T00:10:36;101109.09;;;4.49;72.32
61136;BME280;47021;51.340;12.432;2023-01-28T00:13:10;101105.13;;;4.40;73.07
61136;BME280;47021;51.340;12.432;2023-01-28T00:15:35;101112.19;;;4.57;72.33
61136;BME280;47021;51.340;12.432;2023-01-28T00:18:02;101101.50;;;4.24;73.28
61136;BME280;47021;51.340;12.432;2023-01-28T00:20:27;101114.06;;;4.53;72.67
61136;BME280;47021;51.340;12.432;2023-01-28T00:23:06;101103.66;;;4.35;72.37
61136;BME280;47021;51.340;12.432;2023-01-28T00:25:34;101105.97;;;4.81;71.52
61136;BME280;47021;51.340;12.432;2023-01-28T00:27:59;101108.91;;;4.92;71.34
61136;BME280;47021;51.340;12.432;2023-01-28T00:30:24;101102.00;;;4.72;71.56
61136;BME280;47021;51.340;12.432;2023-01-28T00:35:34;101108.69;;;4.58;71.63
61136;BME280;47021;51.340;12.432;2023-01-28T00:38:00;101114.53;;;4.63;71.46
61136;BME280;47021;51.340;12.432;2023-01-28T00:40:25;101103.22;;;4.84;70.82
61136;BME280;47021;51.340;12.432;2023-01-28T00:42:53;101103.81;;;4.70;70.91
61136;BME280;47021;51.340;12.432;2023-01-28T00:45:19;101109.25;;;4.84;70.59
61136;BME280;47021;51.340;12.432;2023-01-28T00:47:44;101112.31;;;4.74;71.06
61136;BME280;47021;51.340;12.432;2023-01-28T00:50:10;101110.38;;;4.79;70.17
61136;BME280;47021;51.340;12.432;2023-01-28T00:52:47;101108.03;;;4.73;70.51
61136;BME280;47021;51.340;12.432;2023-01-28T00:55:12;101111.84;;;4.64;70.85
61136;BME280;47021;51.340;12.432;2023-01-28T01:06:27;101122.81;;;4.09;71.97
61136;BME280;47021;51.340;12.432;2023-01-28T01:08:55;101117.53;;;4.12;72.28
61136;BME280;47021;51.340;12.432;2023-01-28T01:11:21;101124.66;;;4.47;71.32
61136;BME280;47021;51.340;12.432;2023-01-28T01:16:30;101119.72;;;4.81;70.08
61136;BME280;47021;51.340;12.432;2023-01-28T01:19:10;101116.47;;;4.58;70.46
61136;BME280;47021;51.340;12.432;2023-01-28T01:21:37;101115.63;;;4.37;71.16
61136;BME280;47021;51.340;12.432;2023-01-28T01:24:03;101122.41;;;4.40;71.68
61136;BME280;47021;51.340;12.432;2023-01-28T01:26:29;101116.97;;;4.46;70.71
61136;BME280;47021;51.340;12.432;2023-01-28T01:28:55;101117.09;;;4.63;70.25
61136;BME280;47021;51.340;12.432;2023-01-28T01:31:27;101117.34;;;4.57;70.18
61136;BME280;47021;51.340;12.432;2023-01-28T01:39:21;101122.19;;;3.82;72.53
61136;BME280;47021;51.340;12.432;2023-01-28T01:47:13;101114.25;;;4.28;71.76
61136;BME280;47021;51.340;12.432;2023-01-28T01:49:41;101120.63;;;4.20;71.66
61136;BME280;47021;51.340;12.432;2023-01-28T01:54:51;101127.22;;;4.27;71.29
61136;BME280;47021;51.340;12.432;2023-01-28T01:57:20;101121.66;;;3.94;72.63
61136;BME280;47021;51.340;12.432;2023-01-28T01:59:52;101122.50;;;3.95;72.26
61136;BME280;47021;51.340;12.432;2023-01-28T02:02:18;101121.69;;;3.73;72.38
61136;BME280;47021;51.340;12.432;2023-01-28T02:04:45;101137.16;;;3.94;72.27
61136;BME280;47021;51.340;12.432;2023-01-28T02:07:12;101135.94;;;3.83;72.65
61136;BME280;47021;51.340;12.432;2023-01-28T02:09:41;101136.03;;;4.01;72.53
61136;BME280;47021;51.340;12.432;2023-01-28T02:12:23;101142.00;;;3.82;71.70
61136;BME280;47021;51.340;12.432;2023-01-28T02:17:37;101150.56;;;4.04;72.24
61136;BME280;47021;51.340;12.432;2023-01-28T02:22:36;101156.75;;;3.78;72.99
61136;BME280;47021;51.340;12.432;2023-01-28T02:30:28;101146.59;;;3.74;72.52
61136;BME280;47021;51.340;12.432;2023-01-28T02:32:59;101152.41;;;3.80;72.42
61136;BME280;47021;51.340;12.432;2023-01-28T02:40:55;101155.91;;;3.99;71.61
61136;BME280;47021;51.340;12.432;2023-01-28T02:48:51;101149.97;;;3.97;71.16
61136;BME280;47021;51.340;12.432;2023-01-28T02:54:03;101153.09;;;3.84;71.99
61136;BME280;47021;51.340;12.432;2023-01-28T02:56:51;101155.06;;;3.32;73.14
61136;BME280;47021;51.340;12.432;2023-01-28T03:02:13;101151.28;;;3.64;71.65
61136;BME280;47021;51.340;12.432;2023-01-28T03:07:06;101155.28;;;3.49;72.60
61136;BME280;47021;51.340;12.432;2023-01-28T03:09:33;101155.09;;;3.77;71.24
61136;BME280;47021;51.340;12.432;2023-01-28T03:12:04;101148.41;;;3.93;71.02
61136;BME280;47021;51.340;12.432;2023-01-28T03:14:31;101156.50;;;4.06;70.01
61136;BME280;47021;51.340;12.432;2023-01-28T03:17:04;101159.66;;;4.14;69.81
61136;BME280;47021;51.340;12.432;2023-01-28T03:19:44;101162.38;;;3.89;70.84
61136;BME280;47021;51.340;12.432;2023-01-28T03:22:10;101173.34;;;3.73;71.83
61136;BME280;47021;51.340;12.432;2023-01-28T03:24:45;101172.09;;;4.04;70.50
61136;BME280;47021;51.340;12.432;2023-01-28T03:29:58;101188.13;;;3.91;70.28
61136;BME280;47021;51.340;12.432;2023-01-28T03:32:26;101181.47;;;4.07;70.17
61136;BME280;47021;51.340;12.432;2023-01-28T03:35:03;101176.28;;;4.28;68.86
61136;BME280;47021;51.340;12.432;2023-01-28T03:37:31;101181.88;;;4.40;68.77
61136;BME280;47021;51.340;12.432;2023-01-28T03:40:01;101191.81;;;4.07;69.47
61136;BME280;47021;51.340;12.432;2023-01-28T03:45:15;101183.97;;;4.08;70.21
61136;BME280;47021;51.340;12.432;2023-01-28T03:47:43;101185.97;;;3.80;70.28
61136;BME280;47021;51.340;12.432;2023-01-28T03:50:09;101188.31;;;4.29;68.83
61136;BME280;47021;51.340;12.432;2023-01-28T03:52:36;101187.47;;;4.07;69.53
61136;BME280;47021;51.340;12.432;2023-01-28T03:55:02;101197.28;;;3.76;69.91
61136;BME280;47021;51.340;12.432;2023-01-28T03:57:28;101178.91;;;4.27;68.78
61136;BME280;47021;51.340;12.432;2023-01-28T03:59:54;101191.91;;;4.04;69.43
61136;BME280;47021;51.340;12.432;2023-01-28T04:02:20;101182.84;;;4.15;69.47
61136;BME280;47021;51.340;12.432;2023-01-28T04:04:46;101181.94;;;4.16;68.89
61136;BME280;47021;51.340;12.432;2023-01-28T04:07:12;101191.31;;;3.97;68.83
61136;BME280;47021;51.340;12.432;2023-01-28T04:09:37;101186.94;;;4.21;68.73
61136;BME280;47021;51.340;12.432;2023-01-28T04:12:03;101187.63;;;4.24;68.53
61136;BME280;47021;51.340;12.432;2023-01-28T04:17:09;101194.03;;;4.16;68.57
61136;BME280;47021;51.340;12.432;2023-01-28T04:19:47;101195.97;;;4.53;67.69
61136;BME280;47021;51.340;12.432;2023-01-28T04:27:33;101202.25;;;4.25;68.17
61136;BME280;47021;51.340;12.432;2023-01-28T04:29:59;101205.44;;;3.89;69.46
61136;BME280;47021;51.340;12.432;2023-01-28T04:32:26;101209.00;;;3.63;70.87
61136;BME280;47021;51.340;12.432;2023-01-28T04:34:57;101209.00;;;3.63;70.26
61136;BME280;47021;51.340;12.432;2023-01-28T04:37:29;101204.59;;;3.88;69.70
61136;BME280;47021;51.340;12.432;2023-01-28T04:39:56;101204.06;;;3.80;69.79
61136;BME280;47021;51.340;12.432;2023-01-28T04:42:33;101207.97;;;3.67;70.64
61136;BME280;47021;51.340;12.432;2023-01-28T04:45:13;101223.59;;;3.41;71.28
61136;BME280;47021;51.340;12.432;2023-01-28T04:47:41;101210.00;;;3.36;71.63
61136;BME280;47021;51.340;12.432;2023-01-28T04:50:13;101205.56;;;3.63;70.87
61136;BME280;47021;51.340;12.432;2023-01-28T04:52:38;101220.50;;;3.54;70.83
61136;BME280;47021;51.340;12.432;2023-01-28T04:57:48;101214.50;;;3.77;70.48
61136;BME280;47021;51.340;12.432;2023-01-28T05:00:14;101212.84;;;3.75;70.52
61136;BME280;47021;51.340;12.432;2023-01-28T05:02:39;101212.56;;;3.82;69.83
61136;BME280;47021;51.340;12.432;2023-01-28T05:05:17;101214.13;;;3.86;70.20
61136;BME280;47021;51.340;12.432;2023-01-28T05:10:32;101224.59;;;3.60;70.69
61136;BME280;47021;51.340;12.432;2023-01-28T05:12:58;101226.03;;;3.67;70.45
61136;BME280;47021;51.340;12.432;2023-01-28T05:15:24;101230.94;;;3.75;70.10
61136;BME280;47021;51.340;12.432;2023-01-28T05:17:53;101234.28;;;3.77;70.07
61136;BME280;47021;51.340;12.432;2023-01-28T05:20:19;101240.53;;;3.48;70.35
61136;BME280;47021;51.340;12.432;2023-01-28T05:25:27;101252.25;;;4.03;69.14
61136;BME280;47021;51.340;12.432;2023-01-28T05:27:53;101250.81;;;3.49;70.53
61136;BME280;47021;51.340;12.432;2023-01-28T05:30:19;101247.09;;;3.56;70.70
61136;BME280;47021;51.340;12.432;2023-01-28T05:32:44;101254.09;;;3.76;69.56
61136;BME280;47021;51.340;12.432;2023-01-28T05:35:10;101253.31;;;3.97;68.98
61136;BME280;47021;51.340;12.432;2023-01-28T05:37:36;101259.22;;;4.01;69.68
61136;BME280;47021;51.340;12.432;2023-01-28T05:42:31;101263.03;;;3.44;69.55
61136;BME280;47021;51.340;12.432;2023-01-28T05:45:08;101261.75;;;3.56;69.24
61136;BME280;47021;51.340;12.432;2023-01-28T05:47:35;101258.72;;;3.91;69.09
61136;BME280;47021;51.340;12.432;2023-01-28T05:50:02;101266.16;;;3.99;68.85
61136;BME280;47021;51.340;12.432;2023-01-28T05:52:40;101261.25;;;3.93;68.47
61136;BME280;47021;51.340;12.432;2023-01-28T05:55:18;101268.66;;;3.79;68.58
61136;BME280;47021;51.340;12.432;2023-01-28T05:57:43;101272.00;;;4.04;68.47
61136;BME280;47021;51.340;12.432;2023-01-28T06:02:45;101282.06;;;3.88;68.84
61136;BME280;47021;51.340;12.432;2023-01-28T06:07:54;101283.66;;;3.46;68.92
61136;BME280;47021;51.340;12.432;2023-01-28T06:10:19;101278.63;;;3.65;69.52
61136;BME280;47021;51.340;12.432;2023-01-28T06:12:58;101281.63;;;3.77;68.37
61136;BME280;47021;51.340;12.432;2023-01-28T06:15:24;101289.16;;;3.35;69.01
61136;BME280;47021;51.340;12.432;2023-01-28T06:17:51;101285.78;;;3.33;69.25
61136;BME280;47021;51.340;12.432;2023-01-28T06:20:18;101285.72;;;3.35;69.97
61136;BME280;47021;51.340;12.432;2023-01-28T06:22:44;101293.44;;;3.36;68.71
61136;BME280;47021;51.340;12.432;2023-01-28T06:25:10;101284.44;;;3.48;68.74
61136;BME280;47021;51.340;12.432;2023-01-28T06:27:37;101289.31;;;3.31;68.78
61136;BME280;47021;51.340;12.432;2023-01-28T06:30:02;101291.28;;;3.24;69.30
61136;BME280;47021;51.340;12.432;2023-01-28T06:32:29;101296.38;;;3.74;68.41
61136;BME280;47021;51.340;12.432;2023-01-28T06:34:55;101300.22;;;3.87;67.69
61136;BME280;47021;51.340;12.432;2023-01-28T06:37:21;101302.91;;;3.84;67.51
61136;BME280;47021;51.340;12.432;2023-01-28T06:39:47;101305.22;;;3.19;68.50
61136;BME280;47021;51.340;12.432;2023-01-28T06:42:21;101301.16;;;3.61;66.82
61136;BME280;47021;51.340;12.432;2023-01-28T06:44:47;101307.00;;;3.66;67.00
61136;BME280;47021;51.340;12.432;2023-01-28T06:47:14;101305.72;;;4.01;65.68
61136;BME280;47021;51.340;12.432;2023-01-28T06:49:51;101307.22;;;4.06;64.45
61136;BME280;47021;51.340;12.432;2023-01-28T06:52:16;101310.75;;;4.27;64.19
61136;BME280;47021;51.340;12.432;2023-01-28T06:54:43;101323.19;;;3.94;64.19
61136;BME280;47021;51.340;12.432;2023-01-28T06:57:09;101324.47;;;4.06;64.49
61136;BME280;47021;51.340;12.432;2023-01-28T06:59:40;101321.00;;;4.07;63.79
61136;BME280;47021;51.340;12.432;2023-01-28T07:02:08;101326.88;;;3.64;63.18
61136;BME280;47021;51.340;12.432;2023-01-28T07:04:34;101320.03;;;3.63;60.25
61136;BME280;47021;51.340;12.432;2023-01-28T07:07:00;101323.56;;;3.84;62.06
61136;BME280;47021;51.340;12.432;2023-01-28T07:09:31;101331.28;;;4.08;62.48
61136;BME280;47021;51.340;12.432;2023-01-28T07:14:36;101321.25;;;4.22;62.04
61136;BME280;47021;51.340;12.432;2023-01-28T07:17:01;101336.56;;;4.05;63.13
61136;BME280;47021;51.340;12.432;2023-01-28T07:19:34;101331.78;;;3.95;61.65
61136;BME280;47021;51.340;12.432;2023-01-28T07:21:59;101333.47;;;3.96;61.20
61136;BME280;47021;51.340;12.432;2023-01-28T07:24:25;101334.50;;;4.37;61.15
61136;BME280;47021;51.340;12.432;2023-01-28T07:26:52;101333.72;;;3.65;58.73
61136;BME280;47021;51.340;12.432;2023-01-28T07:29:20;101332.63;;;3.95;58.21
61136;BME280;47021;51.340;12.432;2023-01-28T07:31:45;101328.22;;;4.20;58.31
61136;BME280;47021;51.340;12.432;2023-01-28T07:34:10;101324.41;;;4.52;58.06
61136;BME280;47021;51.340;12.432;2023-01-28T07:39:22;101330.72;;;4.00;60.23
61136;BME280;47021;51.340;12.432;2023-01-28T07:41:47;101328.19;;;3.76;60.74
61136;BME280;47021;51.340;12.432;2023-01-28T07:44:13;101329.28;;;4.38;60.20
61136;BME280;47021;51.340;12.432;2023-01-28T07:46:40;101325.66;;;3.97;60.38
61136;BME280;47021;51.340;12.432;2023-01-28T07:49:11;101337.69;;;4.21;59.46
61136;BME280;47021;51.340;12.432;2023-01-28T07:51:39;101338.13;;;3.86;60.03
61136;BME280;47021;51.340;12.432;2023-01-28T07:54:04;101337.66;;;3.75;59.33
61136;BME280;47021;51.340;12.432;2023-01-28T07:56:41;101337.78;;;3.72;60.48
61136;BME280;47021;51.340;12.432;2023-01-28T07:59:08;101339.59;;;3.21;56.09
61136;BME280;47021;51.340;12.432;2023-01-28T08:04:18;101345.44;;;3.50;57.04
61136;BME280;47021;51.340;12.432;2023-01-28T08:06:46;101348.09;;;3.23;57.61
61136;BME280;47021;51.340;12.432;2023-01-28T08:09:12;101356.34;;;3.32;59.18
61136;BME280;47021;51.340;12.432;2023-01-28T08:11:39;101346.81;;;3.10;57.76
61136;BME280;47021;51.340;12.432;2023-01-28T08:14:08;101348.59;;;3.08;56.68
61136;BME280;47021;51.340;12.432;2023-01-28T08:16:36;101349.44;;;3.08;55.86
61136;BME280;47021;51.340;12.432;2023-01-28T08:19:03;101355.84;;;3.23;55.97
61136;BME280;47021;51.340;12.432;2023-01-28T08:21:41;101358.75;;;3.63;56.17
61136;BME280;47021;51.340;12.432;2023-01-28T08:24:08;101354.75;;;3.54;55.79
61136;BME280;47021;51.340;12.432;2023-01-28T08:26:34;101350.63;;;3.24;56.31
61136;BME280;47021;51.340;12.432;2023-01-28T08:28:59;101353.16;;;3.26;55.02
61136;BME280;47021;51.340;12.432;2023-01-28T08:31:24;101352.81;;;3.36;56.15
61136;BME280;47021;51.340;12.432;2023-01-28T08:33:49;101346.38;;;3.48;55.78
61136;BME280;47021;51.340;12.432;2023-01-28T08:36:17;101350.22;;;3.61;56.29
61136;BME280;47021;51.340;12.432;2023-01-28T08:38:44;101362.19;;;3.39;57.21
61136;BME280;47021;51.340;12.432;2023-01-28T08:41:22;101359.84;;;3.56;56.98
61136;BME280;47021;51.340;12.432;2023-01-28T08:46:30;101357.81;;;3.66;56.88
61136;BME280;47021;51.340;12.432;2023-01-28T08:51:40;101346.59;;;3.90;57.02
61136;BME280;47021;51.340;12.432;2023-01-28T08:54:05;101349.84;;;3.47;56.25
61136;BME280;47021;51.340;12.432;2023-01-28T08:56:30;101356.41;;;3.57;56.49
61136;BME280;47021;51.340;12.432;2023-01-28T08:58:55;101353.22;;;3.49;56.40
61136;BME280;47021;51.340;12.432;2023-01-28T09:01:21;101361.91;;;3.46;55.20
61136;BME280;47021;51.340;12.432;2023-01-28T09:03:59;101368.59;;;3.77;56.17
61136;BME280;47021;51.340;12.432;2023-01-28T09:06:25;101374.72;;;3.49;56.94
61136;BME280;47021;51.340;12.432;2023-01-28T09:11:35;101379.56;;;3.58;55.38
61136;BME280;47021;51.340;12.432;2023-01-28T09:14:00;101381.59;;;3.74;56.55
61136;BME280;47021;51.340;12.432;2023-01-28T09:16:26;101378.69;;;4.07;54.79
61136;BME280;47021;51.340;12.432;2023-01-28T09:18:52;101381.53;;;4.00;54.49
61136;BME280;47021;51.340;12.432;2023-01-28T09:21:24;101385.19;;;4.17;53.98
61136;BME280;47021;51.340;12.432;2023-01-28T09:23:50;101386.44;;;3.60;54.11
61136;BME280;47021;51.340;12.432;2023-01-28T09:26:15;101385.66;;;3.81;53.66
61136;BME280;47021;51.340;12.432;2023-01-28T09:28:41;101394.19;;;4.07;54.16
61136;BME280;47021;51.340;12.432;2023-01-28T09:31:13;101392.78;;;4.22;53.94
61136;BME280;47021;51.340;12.432;2023-01-28T09:33:40;101388.09;;;3.36;55.30
61136;BME280;47021;51.340;12.432;2023-01-28T09:36:06;101401.66;;;3.92;53.98
61136;BME280;47021;51.340;12.432;2023-01-28T09:38:34;101395.03;;;3.85;54.08
61136;BME280;47021;51.340;12.432;2023-01-28T09:41:02;101396.94;;;4.03;52.26
61136;BME280;47021;51.340;12.432;2023-01-28T09:46:05;101405.94;;;3.68;53.30
61136;BME280;47021;51.340;12.432;2023-01-28T09:48:35;101416.69;;;4.05;54.00
61136;BME280;47021;51.340;12.432;2023-01-28T09:51:02;101414.31;;;4.22;52.32
61136;BME280;47021;51.340;12.432;2023-01-28T09:53:45;101415.59;;;4.11;52.66
61136;BME280;47021;51.340;12.432;2023-01-28T10:01:49;101422.41;;;4.37;52.77
61136;BME280;47021;51.340;12.432;2023-01-28T10:10:03;101425.31;;;3.80;53.38
61136;BME280;47021;51.340;12.432;2023-01-28T10:12:36;101429.91;;;4.19;53.16
61136;BME280;47021;51.340;12.432;2023-01-28T10:17:31;101426.59;;;3.68;53.55
61136;BME280;47021;51.340;12.432;2023-01-28T10:22:41;101423.75;;;4.00;52.15
61136;BME280;47021;51.340;12.432;2023-01-28T10:25:20;101432.84;;;4.10;51.98
61136;BME280;47021;51.340;12.432;2023-01-28T10:27:57;101436.59;;;4.02;53.00
61136;BME280;47021;51.340;12.432;2023-01-28T10:30:25;101423.38;;;3.86;52.62
61136;BME280;47021;51.340;12.432;2023-01-28T10:35:38;101424.63;;;3.99;53.98
61136;BME280;47021;51.340;12.432;2023-01-28T10:38:06;101418.25;;;4.33;51.72
61136;BME280;47021;51.340;12.432;2023-01-28T10:40:32;101419.16;;;4.32;51.06
61136;BME280;47021;51.340;12.432;2023-01-28T10:43:05;101409.81;;;4.04;51.26
61136;BME280;47021;51.340;12.432;2023-01-28T10:45:39;101407.78;;;4.59;50.68
61136;BME280;47021;51.340;12.432;2023-01-28T10:50:57;101403.63;;;4.55;51.29
61136;BME280;47021;51.340;12.432;2023-01-28T10:53:36;101405.19;;;4.59;50.62
61136;BME280;47021;51.340;12.432;2023-01-28T10:56:07;101416.72;;;4.04;52.37
61136;BME280;47021;51.340;12.432;2023-01-28T10:58:36;101411.41;;;3.59;53.30
61136;BME280;47021;51.340;12.432;2023-01-28T11:01:20;101404.75;;;4.01;52.92
61136;BME280;47021;51.340;12.432;2023-01-28T11:06:27;101403.50;;;3.88;53.25
61136;BME280;47021;51.340;12.432;2023-01-28T11:08:55;101403.88;;;4.25;53.09
61136;BME280;47021;51.340;12.432;2023-01-28T11:11:33;101398.53;;;4.75;51.40
61136;BME280;47021;51.340;12.432;2023-01-28T11:14:00;101388.97;;;4.77;50.93
61136;BME280;47021;51.340;12.432;2023-01-28T11:16:25;101388.75;;;4.83;49.09
61136;BME280;47021;51.340;12.432;2023-01-28T11:21:25;101391.75;;;4.94;51.63
61136;BME280;47021;51.340;12.432;2023-01-28T11:24:03;101390.03;;;4.93;51.13
61136;BME280;47021;51.340;12.432;2023-01-28T11:26:42;101395.38;;;4.90;50.12
61136;BME280;47021;51.340;12.432;2023-01-28T11:29:18;101389.94;;;5.18;49.17
61136;BME280;47021;51.340;12.432;2023-01-28T11:31:48;101378.06;;;5.34;48.31
61136;BME280;47021;51.340;12.432;2023-01-28T11:34:19;101384.78;;;5.16;50.82
61136;BME280;47021;51.340;12.432;2023-01-28T11:36:54;101402.88;;;4.74;50.76
61136;BME280;47021;51.340;12.432;2023-01-28T11:39:31;101393.53;;;4.25;50.58
61136;BME280;47021;51.340;12.432;2023-01-28T11:44:47;101381.81;;;4.62;51.00
61136;BME280;47021;51.340;12.432;2023-01-28T11:55:41;101386.66;;;4.48;51.49
61136;BME280;47021;51.340;12.432;2023-01-28T11:58:24;101387.84;;;4.39;51.94
61136;BME280;47021;51.340;12.432;2023-01-28T12:00:59;101385.34;;;4.38;51.37
61136;BME280;47021;51.340;12.432;2023-01-28T12:05:58;101376.97;;;4.53;53.11
61136;BME280;47021;51.340;12.432;2023-01-28T12:14:12;101380.09;;;4.39;52.62
61136;BME280;47021;51.340;12.432;2023-01-28T12:16:57;101371.66;;;3.88;53.65
61136;BME280;47021;51.340;12.432;2023-01-28T12:22:27;101377.91;;;4.05;54.11
61136;BME280;47021;51.340;12.432;2023-01-28T12:25:00;101374.66;;;3.51;55.24
61136;BME280;47021;51.340;12.432;2023-01-28T12:43:46;101364.03;;;3.85;56.29
61136;BME280;47021;51.340;12.432;2023-01-28T12:46:28;101359.06;;;3.79;55.92
61136;BME280;47021;51.340;12.432;2023-01-28T12:49:00;101366.13;;;3.74;56.83
61136;BME280;47021;51.340;12.432;2023-01-28T12:51:28;101364.66;;;4.14;55.79
61136;BME280;47021;51.340;12.432;2023-01-28T12:56:28;101358.19;;;4.03;54.11
61136;BME280;47021;51.340;12.432;2023-01-28T12:58:57;101356.22;;;4.33;53.52
61136;BME280;47021;51.340;12.432;2023-01-28T13:01:39;101350.78;;;3.94;53.75
61136;BME280;47021;51.340;12.432;2023-01-28T13:04:08;101356.94;;;3.67;53.77
61136;BME280;47021;51.340;12.432;2023-01-28T13:06:40;101365.47;;;3.69;53.95
61136;BME280;47021;51.340;12.432;2023-01-28T13:09:42;101361.28;;;3.65;53.45
61136;BME280;47021;51.340;12.432;2023-01-28T13:11:59;101355.09;;;4.16;52.15
61136;BME280;47021;51.340;12.432;2023-01-28T13:14:29;101360.59;;;4.31;52.36
61136;BME280;47021;51.340;12.432;2023-01-28T13:16:55;101361.13;;;3.94;52.64
61136;BME280;47021;51.340;12.432;2023-01-28T13:19:37;101368.47;;;4.27;52.57
61136;BME280;47021;51.340;12.432;2023-01-28T13:25:24;101375.38;;;3.04;55.71
61136;BME280;47021;51.340;12.432;2023-01-28T13:28:01;101375.75;;;3.44;54.82
61136;BME280;47021;51.340;12.432;2023-01-28T13:30:29;101379.84;;;3.76;54.10
61136;BME280;47021;51.340;12.432;2023-01-28T13:33:01;101383.41;;;3.72;53.94
61136;BME280;47021;51.340;12.432;2023-01-28T13:35:37;101375.78;;;3.69;53.49
61136;BME280;47021;51.340;12.432;2023-01-28T13:38:18;101379.63;;;3.57;53.17
61136;BME280;47021;51.340;12.432;2023-01-28T13:40:56;101380.66;;;3.51;53.00
61136;BME280;47021;51.340;12.432;2023-01-28T13:43:27;101382.16;;;3.58;52.93
61136;BME280;47021;51.340;12.432;2023-01-28T13:45:57;101381.19;;;3.86;52.58
61136;BME280;47021;51.340;12.432;2023-01-28T13:51:26;101384.03;;;4.03;52.43
61136;BME280;47021;51.340;12.432;2023-01-28T13:54:05;101394.69;;;3.94;52.75
61136;BME280;47021;51.340;12.432;2023-01-28T14:09:59;101368.38;;;4.31;50.84
61136;BME280;47021;51.340;12.432;2023-01-28T14:15:31;101373.03;;;4.21;51.40
61136;BME280;47021;51.340;12.432;2023-01-28T14:18:13;101367.66;;;4.70;50.87
61136;BME280;47021;51.340;12.432;2023-01-28T14:20:41;101363.22;;;4.29;51.71
61136;BME280;47021;51.340;12.432;2023-01-28T14:23:17;101365.13;;;4.90;50.16
61136;BME280;47021;51.340;12.432;2023-01-28T14:28:14;101360.03;;;4.89;49.41
61136;BME280;47021;51.340;12.432;2023-01-28T14:33:25;101359.88;;;4.72;49.92
61136;BME280;47021;51.340;12.432;2023-01-28T14:35:59;101374.81;;;4.42;51.03
61136;BME280;47021;51.340;12.432;2023-01-28T14:38:43;101373.91;;;4.43;51.43
61136;BME280;47021;51.340;12.432;2023-01-28T14:41:22;101379.13;;;4.42;52.12
61136;BME280;47021;51.340;12.432;2023-01-28T14:46:36;101363.91;;;4.79;50.44
61136;BME280;47021;51.340;12.432;2023-01-28T14:49:24;101350.41;;;4.71;49.62
61136;BME280;47021;51.340;12.432;2023-01-28T14:52:09;101358.75;;;4.77;50.27
61136;BME280;47021;51.340;12.432;2023-01-28T14:59:57;101363.91;;;4.79;49.69
61136;BME280;47021;51.340;12.432;2023-01-28T15:02:26;101362.88;;;4.83;50.24
61136;BME280;47021;51.340;12.432;2023-01-28T15:04:52;101361.06;;;4.40;51.40
61136;BME280;47021;51.340;12.432;2023-01-28T15:07:22;101351.38;;;4.68;51.09
61136;BME280;47021;51.340;12.432;2023-01-28T15:10:04;101348.41;;;4.77;50.46
61136;BME280;47021;51.340;12.432;2023-01-28T15:12:40;101340.44;;;4.83;50.75
61136;BME280;47021;51.340;12.432;2023-01-28T15:17:49;101336.03;;;5.47;48.68
61136;BME280;47021;51.340;12.432;2023-01-28T15:20:17;101334.88;;;5.54;48.82
61136;BME280;47021;51.340;12.432;2023-01-28T15:22:43;101332.13;;;5.37;48.94
61136;BME280;47021;51.340;12.432;2023-01-28T15:27:59;101329.69;;;5.54;49.39
61136;BME280;47021;51.340;12.432;2023-01-28T15:30:27;101333.28;;;5.50;49.26
61136;BME280;47021;51.340;12.432;2023-01-28T15:32:57;101327.88;;;5.56;49.42
61136;BME280;47021;51.340;12.432;2023-01-28T15:35:29;101330.56;;;5.53;49.53
61136;BME280;47021;51.340;12.432;2023-01-28T15:37:54;101346.72;;;5.40;49.73
61136;BME280;47021;51.340;12.432;2023-01-28T15:40:26;101348.59;;;5.56;48.81
61136;BME280;47021;51.340;12.432;2023-01-28T15:42:54;101353.88;;;5.53;49.08
61136;BME280;47021;51.340;12.432;2023-01-28T15:45:20;101347.16;;;5.49;49.58
61136;BME280;47021;51.340;12.432;2023-01-28T15:50:30;101356.78;;;5.26;49.95
61136;BME280;47021;51.340;12.432;2023-01-28T15:52:55;101360.13;;;5.29;49.57
61136;BME280;47021;51.340;12.432;2023-01-28T15:55:32;101356.13;;;4.79;50.72
61136;BME280;47021;51.340;12.432;2023-01-28T15:58:08;101354.44;;;4.78;50.41
61136;BME280;47021;51.340;12.432;2023-01-28T16:00:36;101356.66;;;5.09;50.34
61136;BME280;47021;51.340;12.432;2023-01-28T16:03:05;101364.44;;;5.29;51.03
61136;BME280;47021;51.340;12.432;2023-01-28T16:05:40;101361.78;;;5.30;49.58
61136;BME280;47021;51.340;12.432;2023-01-28T16:08:17;101362.38;;;5.37;48.67
61136;BME280;47021;51.340;12.432;2023-01-28T16:10:51;101359.72;;;5.38;48.91
61136;BME280;47021;51.340;12.432;2023-01-28T16:13:19;101366.19;;;5.28;48.61
61136;BME280;47021;51.340;12.432;2023-01-28T16:15:54;101379.00;;;4.89;49.75
61136;BME280;47021;51.340;12.432;2023-01-28T16:21:05;101378.47;;;4.13;51.24
61136;BME280;47021;51.340;12.432;2023-01-28T16:23:31;101373.06;;;4.19;50.21
61136;BME280;47021;51.340;12.432;2023-01-28T16:26:17;101363.28;;;4.51;50.13
61136;BME280;47021;51.340;12.432;2023-01-28T16:28:57;101373.25;;;4.81;49.65
61136;BME280;47021;51.340;12.432;2023-01-28T16:31:41;101381.53;;;4.00;52.79
61136;BME280;47021;51.340;12.432;2023-01-28T16:34:08;101379.06;;;3.97;51.92
61136;BME280;47021;51.340;12.432;2023-01-28T16:36:36;101374.25;;;4.11;52.89
61136;BME280;47021;51.340;12.432;2023-01-28T16:39:01;101381.72;;;4.18;53.52
61136;BME280;47021;51.340;12.432;2023-01-28T16:41:27;101389.50;;;3.71;53.95
61136;BME280;47021;51.340;12.432;2023-01-28T16:46:37;101386.47;;;3.58;55.18
61136;BME280;47021;51.340;12.432;2023-01-28T16:49:02;101394.72;;;4.17;53.67